FW1494 Weather Reports


Display with metric or nautical units.
time (UTC)temp
F
wind
direction
speed
MPH
gust
MPH
rain 1hr
in
rain 24hr
in
rain mn
in
humidity
%
barometer
mb
20180522175132 53 253 10.0 15.0 0.05 0.37 0.35 94 997.3
20180522174632 54 290 10.0 17.0 0.05 0.38 0.35 94 997.8
20180522174128 54 286 10.0 17.0 0.05 0.38 0.35 94 997.8
20180522173629 54 279 9.0 14.0 0.03 0.36 0.34 93 997.8
20180522173121 54 298 9.0 25.0 0.03 0.38 0.34 93 997.5
20180522172621 53 271 14.0 25.0 0.03 0.39 0.34 93 997.2
20180522172111 54 248 16.0 26.0 0.02 0.39 0.33 91 997.1
20180522171610 55 230 11.0 26.0 0.01 0.39 0.32 93 997.2
20180522171102 55 263 7.0 14.0 0.00 0.38 0.31 95 997.0
20180522170556 55 281 6.0 14.0 0.01 0.39 0.31 95 997.0
20180522170055 55 278 4.0 11.0 0.01 0.39 0.31 96 997.0
20180522165541 55 339 2.0 4.0 0.01 0.39 0.31 96 996.9
20180522165036 55 0 3.0 5.0 0.02 0.39 0.31 96 996.9
20180522164528 55 0 3.0 5.0 0.02 0.39 0.31 96 996.8
20180522164022 55 5 2.0 4.0 0.02 0.39 0.31 96 996.7
20180522163519 55 256 1.0 2.0 0.02 0.39 0.31 95 996.7
20180522163008 55 256 1.0 2.0 0.03 0.39 0.31 95 996.7
20180522162459 55 256 1.0 3.0 0.04 0.39 0.31 95 996.6
20180522161955 56 256 3.0 4.0 0.05 0.39 0.31 95 996.7
20180522161447 56 245 4.0 7.0 0.06 0.39 0.31 95 996.9
20180522160938 56 242 5.0 7.0 0.09 0.39 0.31 95 997.1
20180522160432 56 225 4.0 7.0 0.09 0.38 0.30 95 997.0
20180522155924 56 252 4.0 7.0 0.10 0.38 0.30 95 997.0
20180522155418 56 234 5.0 7.0 0.13 0.38 0.30 95 996.9
20180522154909 56 232 5.0 7.0 0.13 0.36 0.29 95 996.9
20180522154359 56 231 6.0 10.0 0.13 0.36 0.28 95 996.8
20180522153851 56 223 7.0 15.0 0.14 0.36 0.28 95 996.8
20180522153341 56 227 8.0 15.0 0.13 0.35 0.28 95 996.8
20180522152831 57 221 9.0 13.0 0.13 0.35 0.28 95 996.9
20180522152328 57 237 10.0 17.0 0.13 0.34 0.27 95 997.0
20180522151817 56 252 9.0 17.0 0.13 0.33 0.25 95 996.8
20180522151321 56 259 7.0 13.0 0.11 0.31 0.24 95 996.8
20180522150809 56 281 9.0 13.0 0.09 0.29 0.21 94 996.7
20180522150258 56 305 10.0 16.0 0.09 0.28 0.20 94 996.6
20180522145748 56 273 11.0 18.0 0.11 0.27 0.19 94 996.7
20180522145239 56 288 11.0 18.0 0.12 0.24 0.17 93 996.8
20180522144726 56 304 9.0 17.0 0.10 0.23 0.15 93 996.9
20180522144224 56 300 9.0 13.0 0.10 0.23 0.15 92 996.8
20180522143714 56 297 9.0 14.0 0.10 0.22 0.14 91 996.9
20180522143204 57 296 11.0 18.0 0.11 0.22 0.14 91 996.8
20180522142654 57 277 12.0 21.0 0.11 0.21 0.14 90 996.8
20180522142144 57 300 12.0 21.0 0.11 0.21 0.13 90 996.9
20180522141634 57 293 16.0 26.0 0.10 0.21 0.13 88 996.9
20180522141124 58 263 19.0 33.0 0.10 0.21 0.13 88 997.3
20180522140614 59 269 18.0 33.0 0.10 0.21 0.13 87 997.5
20180522140104 60 282 15.0 23.0 0.09 0.20 0.12 93 997.5
20180522135554 60 263 14.0 20.0 0.03 0.14 0.06 91 997.5
20180522135043 60 340 14.0 20.0 0.04 0.13 0.05 91 996.7
20180522134534 60 311 11.0 20.0 0.05 0.13 0.05 92 996.7
20180522134025 59 312 9.0 17.0 0.04 0.13 0.04 92 996.7
20180522133507 59 315 8.0 17.0 0.03 0.12 0.03 91 996.7
20180522132956 59 332 7.0 14.0 0.03 0.12 0.03 91 996.6
20180522132446 59 339 7.0 13.0 0.02 0.11 0.02 90 996.6
20180522131936 59 355 7.0 16.0 0.02 0.11 0.02 91 996.7
20180522131426 59 336 8.0 16.0 0.02 0.11 0.02 90 996.9
20180522130916 59 326 9.0 16.0 0.02 0.11 0.02 91 996.9
20180522130359 59 323 10.0 16.0 0.02 0.11 0.02 91 997.1
20180522125849 59 329 10.0 20.0 0.02 0.11 0.02 91 997.2
20180522125339 60 331 11.0 20.0 0.02 0.11 0.02 90 997.3
20180522124829 60 350 10.0 18.0 0.00 0.09 0.00 88 997.5
20180522124319 60 344 12.0 21.0 0.00 0.09 0.00 87 997.6
20180522123809 61 318 12.0 21.0 0.00 0.09 0.00 87 997.7
20180522123259 60 330 11.0 20.0 0.00 0.09 0.00 88 997.8
20180522122748 60 330 13.0 20.0 0.00 0.09 0.00 88 997.9
20180522122237 60 302 12.0 20.0 0.00 0.09 0.00 87 998.0
20180522121728 60 319 12.0 18.0 0.00 0.09 0.00 87 998.1
20180522121217 60 320 13.0 19.0 0.00 0.09 0.00 87 998.1
20180522120709 60 317 12.0 19.0 0.00 0.09 0.00 87 998.2
20180522120157 60 309 10.0 18.0 0.00 0.09 0.00 87 998.3
20180522115654 61 334 11.0 20.0 0.00 0.09 0.09 87 998.4
20180522115144 61 327 13.0 20.0 0.00 0.09 0.09 86 998.3
20180522114634 61 324 13.0 23.0 0.00 0.09 0.09 86 998.5
20180522114125 60 321 12.0 23.0 0.00 0.09 0.09 87 998.4
20180522113622 60 320 12.0 17.0 0.00 0.09 0.09 86 998.5
20180522113113 60 309 12.0 17.0 0.00 0.09 0.09 86 998.6
20180522112554 60 319 12.0 23.0 0.00 0.09 0.09 86 998.6
20180522112044 60 355 10.0 23.0 0.00 0.09 0.09 87 998.8
20180522111535 60 15 8.0 15.0 0.00 0.09 0.09 87 999.0
20180522111026 60 344 9.0 14.0 0.00 0.09 0.09 87 999.1
20180522110520 60 337 10.0 18.0 0.00 0.09 0.09 87 999.0
20180522110012 60 314 9.0 18.0 0.00 0.09 0.09 88 999.2
20180522105506 60 334 7.0 18.0 0.00 0.09 0.09 88 999.2
20180522104958 60 5 7.0 13.0 0.00 0.09 0.09 87 999.3
20180522104451 60 338 8.0 14.0 0.00 0.09 0.09 87 999.3
20180522103945 60 346 9.0 17.0 0.00 0.09 0.09 87 999.4
20180522103441 60 306 10.0 17.0 0.00 0.09 0.09 88 999.4
20180522102933 60 336 9.0 16.0 0.00 0.09 0.09 88 999.5
20180522102429 60 311 8.0 14.0 0.00 0.09 0.09 88 999.7
20180522101919 60 314 7.0 12.0 0.00 0.09 0.09 89 999.8
20180522101416 59 335 6.0 15.0 0.00 0.09 0.09 88 1000.0
20180522100910 59 355 5.0 15.0 0.00 0.09 0.09 88 999.9
20180522100410 60 349 8.0 16.0 0.00 0.09 0.09 87 999.9
20180522095855 60 355 9.0 16.0 0.00 0.09 0.09 87 999.8
20180522095354 60 341 8.0 14.0 0.00 0.09 0.09 87 1000.1
20180522094846 60 310 10.0 14.0 0.00 0.09 0.09 87 1000.3
20180522094340 60 329 9.0 14.0 0.00 0.09 0.09 88 1000.4
20180522093827 60 340 7.0 12.0 0.00 0.09 0.09 88 1000.2
20180522093318 60 323 7.0 14.0 0.00 0.09 0.09 88 1000.4
20180522092818 60 340 7.0 14.0 0.00 0.09 0.09 88 1000.4
20180522092311 59 338 6.0 11.0 0.00 0.09 0.09 88 1000.4
20180522091804 59 329 5.0 11.0 0.00 0.09 0.09 88 1000.5
20180522091305 59 336 6.0 14.0 0.00 0.09 0.09 87 1000.5
20180522090754 59 315 7.0 14.0 0.00 0.09 0.09 87 1000.5
20180522090252 59 340 7.0 13.0 0.00 0.09 0.09 87 1000.7
20180522085749 60 338 8.0 13.0 0.00 0.09 0.09 86 1000.6
20180522085239 60 342 9.0 13.0 0.00 0.09 0.09 87 1000.7
20180522084736 60 355 9.0 12.0 0.00 0.09 0.09 86 1000.7
20180522084229 60 322 9.0 17.0 0.00 0.10 0.09 86 1000.8
20180522083721 60 327 10.0 17.0 0.00 0.11 0.09 86 1000.9
20180522083218 60 346 9.0 16.0 0.00 0.16 0.09 86 1000.9
20180522082717 60 348 9.0 16.0 0.00 0.17 0.09 86 1001.0
20180522082207 60 346 9.0 20.0 0.00 0.17 0.09 85 1001.0
20180522081658 60 346 10.0 20.0 0.00 0.17 0.09 85 1001.1
20180522081151 60 315 11.0 19.0 0.00 0.17 0.09 84 1001.2
20180522080646 60 326 10.0 17.0 0.00 0.17 0.09 84 1001.2
20180522080140 60 346 8.0 13.0 0.00 0.17 0.09 84 1001.2
20180522075632 60 5 7.0 11.0 0.00 0.17 0.09 84 1001.2
20180522075130 60 334 7.0 12.0 0.00 0.17 0.09 84 1001.5
20180522074623 60 329 7.0 14.0 0.00 0.17 0.09 84 1001.5
20180522074121 60 323 9.0 14.0 0.00 0.17 0.09 84 1001.6
20180522073613 60 325 9.0 13.0 0.00 0.17 0.09 84 1001.6
20180522073104 60 328 8.0 15.0 0.00 0.17 0.09 84 1001.7
20180522072554 60 332 8.0 15.0 0.00 0.17 0.09 84 1001.8
20180522072045 60 9 5.0 13.0 0.00 0.17 0.09 85 1001.7
20180522071540 60 11 3.0 6.0 0.00 0.17 0.09 85 1001.8
20180522071033 60 346 4.0 6.0 0.00 0.17 0.09 85 1001.8
20180522070526 60 340 5.0 8.0 0.00 0.17 0.09 84 1001.9
20180522070016 61 349 6.0 15.0 0.00 0.17 0.09 84 1001.8
20180522065507 61 323 8.0 15.0 0.00 0.17 0.09 83 1001.9
20180522065002 61 326 8.0 14.0 0.00 0.17 0.09 82 1001.9
20180522064453 61 325 7.0 11.0 0.00 0.18 0.09 82 1002.0
20180522063945 61 329 7.0 12.0 0.00 0.19 0.09 82 1001.9
20180522063434 61 306 8.0 12.0 0.00 0.20 0.09 82 1001.9
20180522062924 61 306 10.0 17.0 0.00 0.21 0.09 82 1001.9
20180522062418 61 326 10.0 17.0 0.00 0.21 0.09 82 1002.0
20180522061907 61 315 10.0 15.0 0.00 0.21 0.09 82 1002.1
20180522061358 61 300 10.0 15.0 0.00 0.21 0.09 82 1002.1
20180522060859 61 296 10.0 16.0 0.00 0.21 0.09 82 1002.1
20180522060349 62 325 10.0 17.0 0.00 0.21 0.09 82 1002.0
20180522055840 62 317 11.0 20.0 0.00 0.21 0.09 82 1002.2
20180522055333 61 309 11.0 20.0 0.00 0.21 0.09 82 1002.2
20180522054819 61 343 9.0 15.0 0.00 0.21 0.09 82 1002.3
20180522054304 61 298 8.0 14.0 0.00 0.21 0.09 83 1002.2
20180522053750 61 308 7.0 13.0 0.00 0.21 0.09 82 1002.1
20180522053241 61 343 8.0 14.0 0.00 0.21 0.09 82 1002.3
20180522052730 61 311 10.0 14.0 0.00 0.22 0.09 82 1002.3
20180522052217 61 330 10.0 15.0 0.00 0.23 0.09 81 1002.3
20180522051700 62 315 10.0 15.0 0.00 0.23 0.09 81 1002.3
20180522051147 62 328 10.0 16.0 0.00 0.23 0.09 80 1002.2
20180522050638 62 307 10.0 16.0 0.00 0.23 0.09 80 1002.3
20180522050127 62 327 8.0 13.0 0.00 0.23 0.09 80 1002.4
20180522045619 62 331 7.0 13.0 0.00 0.23 0.09 80 1002.5
20180522045119 62 321 8.0 13.0 0.00 0.23 0.09 79 1002.5
20180522044619 63 332 8.0 15.0 0.00 0.23 0.09 79 1002.7
20180522044119 63 324 8.0 15.0 0.00 0.23 0.09 79 1002.7
20180522043621 63 318 9.0 14.0 0.00 0.23 0.09 78 1002.8
20180522043111 63 308 10.0 15.0 0.00 0.23 0.09 77 1002.9
20180522042602 64 338 9.0 15.0 0.00 0.23 0.09 77 1003.0
20180522042051 64 294 9.0 15.0 0.00 0.23 0.09 78 1003.0
20180522041533 64 287 10.0 15.0 0.00 0.23 0.09 77 1003.1
20180522041023 64 320 10.0 15.0 0.00 0.23 0.09 77 1003.1
20180522040513 65 342 9.0 14.0 0.00 0.23 0.09 76 1003.0
20180522040003 65 321 8.0 13.0 0.00 0.23 0.09 76 1003.0
20180522035453 65 290 9.0 15.0 0.00 0.23 0.09 77 1003.0
20180522034953 65 325 9.0 15.0 0.00 0.23 0.09 77 1003.1
20180522034443 65 323 7.0 12.0 0.00 0.23 0.09 76 1003.1
20180522033927 65 317 6.0 14.0 0.00 0.23 0.09 76 1003.2
20180522033417 65 5 7.0 14.0 0.00 0.23 0.09 76 1003.3
20180522032908 65 346 7.0 12.0 0.00 0.23 0.09 77 1003.3
20180522032357 65 319 8.0 12.0 0.00 0.23 0.09 77 1003.3
20180522031855 64 333 9.0 11.0 0.00 0.23 0.09 77 1003.5
20180522031345 64 325 10.0 14.0 0.00 0.23 0.09 77 1003.5
20180522030835 64 314 11.0 15.0 0.00 0.23 0.09 76 1003.5
20180522030324 64 328 11.0 19.0 0.00 0.23 0.09 77 1003.6
20180522025818 64 325 11.0 17.0 0.00 0.23 0.09 76 1003.6
20180522025306 64 300 11.0 17.0 0.00 0.23 0.09 75 1003.7
20180522024755 64 306 13.0 22.0 0.00 0.24 0.09 75 1003.8
20180522024245 65 324 13.0 22.0 0.00 0.24 0.09 74 1004.0
20180522023734 65 294 13.0 20.0 0.00 0.24 0.09 75 1004.0
20180522023225 65 300 12.0 20.0 0.00 0.24 0.09 74 1004.1
20180522022715 65 321 10.0 16.0 0.00 0.25 0.09 77 1004.1
20180522022205 65 300 9.0 13.0 0.00 0.26 0.09 79 1004.1
20180522021656 65 286 8.0 13.0 0.00 0.26 0.09 77 1004.2
20180522021144 65 304 8.0 14.0 0.00 0.26 0.09 78 1004.5
20180522020635 65 330 10.0 15.0 0.00 0.27 0.09 78 1004.5
20180522020122 65 318 11.0 15.0 0.00 0.27 0.09 78 1004.6
20180522015613 65 344 11.0 17.0 0.00 0.27 0.09 78 1004.6
20180522015113 65 315 12.0 17.0 0.00 0.27 0.09 78 1004.5
20180522014602 65 340 11.0 16.0 0.00 0.27 0.09 78 1004.6
20180522014052 65 297 10.0 16.0 0.00 0.27 0.09 77 1004.6
20180522013544 65 304 10.0 15.0 0.00 0.27 0.09 77 1004.5
20180522013033 65 293 11.0 17.0 0.00 0.27 0.09 78 1004.7
20180522012524 65 292 11.0 16.0 0.00 0.27 0.09 79 1004.6
20180522012013 65 328 11.0 16.0 0.00 0.27 0.09 77 1004.9
20180522011506 64 302 10.0 18.0 0.00 0.27 0.09 79 1005.0
20180522010953 64 321 9.0 18.0 0.00 0.27 0.09 79 1005.1
20180522005932 63 338 8.0 12.0 0.00 0.27 0.09 82 1005.5
20180522005423 63 355 9.0 12.0 0.00 0.27 0.09 82 1005.6
20180522004914 62 300 7.0 12.0 0.00 0.27 0.09 82 1005.7
20180522004403 62 291 6.0 12.0 0.00 0.27 0.09 82 1005.8
20180522003858 62 323 7.0 13.0 0.00 0.27 0.09 82 1005.8
20180522003349 62 319 8.0 15.0 0.00 0.27 0.09 81 1005.8
20180522002839 62 325 8.0 15.0 0.00 0.27 0.09 81 1006.0
20180522002330 63 337 9.0 15.0 0.00 0.27 0.09 80 1006.2
20180522001821 63 321 8.0 16.0 0.00 0.27 0.09 80 1006.3
20180522001311 63 331 7.0 12.0 0.00 0.27 0.09 79 1006.4
20180522000801 63 330 7.0 14.0 0.00 0.27 0.09 81 1006.6
20180522000252 63 301 8.0 14.0 0.00 0.27 0.09 82 1006.6
20180521235739 63 291 9.0 14.0 0.00 0.27 0.09 82 1006.9
20180521235229 62 308 9.0 14.0 0.00 0.27 0.09 81 1007.0
20180521234719 63 314 9.0 15.0 0.00 0.27 0.09 83 1007.1
20180521234209 63 316 9.0 15.0 0.00 0.27 0.09 81 1007.2
20180521233659 63 298 9.0 15.0 0.00 0.27 0.09 83 1007.3
20180521233147 63 322 9.0 15.0 0.00 0.27 0.09 84 1007.4
20180521232637 63 341 6.0 10.0 0.00 0.27 0.09 87 1007.4
20180521232126 62 349 5.0 10.0 0.00 0.27 0.09 87 1007.5
20180521231617 62 317 6.0 12.0 0.00 0.27 0.09 87 1007.7
20180521231105 62 323 6.0 12.0 0.00 0.27 0.09 87 1007.9
20180521230558 62 338 4.0 8.0 0.00 0.27 0.09 87 1007.9
20180521230048 61 315 3.0 6.0 0.00 0.27 0.09 88 1008.0
20180521225537 61 325 3.0 5.0 0.00 0.27 0.09 89 1008.0
20180521225027 60 15 3.0 5.0 0.00 0.27 0.09 88 1008.0
20180521224518 60 336 4.0 8.0 0.00 0.27 0.09 89 1007.9
20180521224010 60 351 4.0 8.0 0.00 0.27 0.09 89 1008.1
20180521223458 60 340 5.0 9.0 0.00 0.27 0.09 88 1008.3
20180521222951 60 0 5.0 9.0 0.00 0.27 0.09 89 1008.7
20180521222441 60 355 5.0 9.0 0.01 0.27 0.09 90 1008.6
20180521221930 60 17 5.0 9.0 0.01 0.27 0.09 91 1008.7
20180521221421 59 35 4.0 8.0 0.01 0.27 0.09 92 1008.7
20180521220911 59 22 4.0 8.0 0.01 0.27 0.09 92 1008.7
20180521220401 58 0 4.0 8.0 0.01 0.27 0.09 91 1008.7
20180521215851 58 5 4.0 5.0 0.01 0.27 0.09 92 1008.8
20180521215337 58 10 5.0 7.0 0.01 0.27 0.09 92 1008.8
20180521214829 58 12 5.0 10.0 0.01 0.27 0.09 91 1008.8
20180521214331 59 11 4.0 10.0 0.01 0.27 0.09 92 1008.8
20180521213826 59 5 4.0 10.0 0.01 0.27 0.09 91 1008.8
20180521213319 59 334 4.0 10.0 0.01 0.27 0.09 92 1008.8
20180521212816 59 11 4.0 6.0 0.00 0.26 0.08 92 1008.8
20180521212316 59 323 4.0 8.0 0.00 0.26 0.08 93 1009.0
20180521211812 58 331 5.0 10.0 0.00 0.26 0.08 93 1009.2
20180521211305 58 10 6.0 10.0 0.00 0.26 0.08 93 1009.1
20180521210800 58 340 6.0 9.0 0.00 0.26 0.08 93 1009.2
20180521210255 57 338 6.0 10.0 0.00 0.26 0.08 94 1009.1
20180521205745 57 292 4.0 9.0 0.00 0.26 0.08 94 1009.0
20180521205237 57 335 4.0 8.0 0.00 0.26 0.08 95 1008.9
20180521204734 57 13 4.0 8.0 0.00 0.26 0.08 95 1008.9
20180521204227 57 313 4.0 9.0 0.00 0.26 0.08 95 1008.8
20180521203722 57 342 3.0 9.0 0.00 0.26 0.08 95 1008.9
20180521203210 56 329 2.0 4.0 0.00 0.26 0.08 96 1008.8
20180521202705 56 341 2.0 4.0 0.00 0.26 0.08 96 1008.9
20180521202202 56 327 2.0 3.0 0.00 0.26 0.08 96 1008.9
20180521201654 56 343 2.0 3.0 0.00 0.26 0.08 96 1009.2
20180521201146 56 343 2.0 4.0 0.00 0.26 0.08 96 1009.1
20180521200644 56 343 1.0 4.0 0.00 0.26 0.08 96 1009.1
20180521200138 56 343 2.0 5.0 0.00 0.26 0.08 96 1009.2
20180521195635 55 334 3.0 5.0 0.00 0.26 0.08 96 1009.1
20180521195127 55 317 2.0 4.0 0.00 0.26 0.08 96 1009.2
20180521194624 55 315 2.0 3.0 0.00 0.26 0.08 96 1009.2
20180521194117 55 315 2.0 3.0 0.00 0.26 0.08 96 1009.2
20180521193611 55 355 1.0 3.0 0.00 0.26 0.08 96 1009.1
20180521193107 55 355 1.0 3.0 0.00 0.26 0.08 96 1009.3
20180521192607 55 0 3.0 5.0 0.00 0.26 0.08 96 1009.2
20180521192104 55 0 3.0 5.0 0.00 0.26 0.08 96 1009.2
20180521191558 55 5 2.0 4.0 0.00 0.26 0.08 95 1009.1
20180521191054 55 313 2.0 4.0 0.00 0.26 0.08 95 1009.1
20180521190552 55 327 3.0 6.0 0.00 0.26 0.08 95 1009.2
20180521190046 55 325 4.0 6.0 0.00 0.26 0.08 95 1009.2
20180521185547 55 323 4.0 6.0 0.01 0.26 0.08 95 1009.2
20180521185046 56 316 5.0 8.0 0.01 0.26 0.08 95 1009.2
20180521184533 55 334 5.0 8.0 0.02 0.26 0.08 95 1009.2
20180521184032 55 316 4.0 7.0 0.02 0.26 0.08 94 1009.2
20180521183523 55 304 4.0 7.0 0.02 0.26 0.08 94 1009.2
20180521183020 55 294 5.0 7.0 0.03 0.26 0.08 94 1009.2
20180521182511 55 315 4.0 8.0 0.04 0.26 0.08 94 1009.1
20180521182010 56 316 3.0 8.0 0.06 0.26 0.08 95 1009.2
20180521181505 56 320 3.0 4.0 0.06 0.26 0.08 95 1009.0
20180521180959 56 342 3.0 11.0 0.06 0.26 0.08 95 1009.0
20180521180451 56 319 5.0 11.0 0.07 0.26 0.08 95 1009.1
20180521175942 56 325 7.0 12.0 0.07 0.26 0.08 95 1009.3
20180521175433 56 319 9.0 14.0 0.06 0.25 0.07 94 1009.5